Darstellungsparameter: Aktuell verwendete Einstellungen:
Skalierung der Graphiken ... ?
xyx+y,   Skalierungsfaktor:      Skalierung: Modus: x, Faktor: 1
Darstellungszeitraum ... ?
Vom - - bis: - -   Zeitraum: 16.09.2016 - 15.09.2019
Min/Max/Avg-Anzeige ... ?
Zeige MMA aktuell
Zeige MMA Monat
Zeige MMA alles
Zeige --A aktuell
Zeige --A Monat
Zeige --A alles
Keine MMA-Anzeige
MMA:
Minimum Maximum Average (ber die Originaldaten)
MMA-Basis: 16.09.2016 - 15.09.2019
Quicknavigation für Darstellung... ?
Tage:      1T, 2T, 3T, 5T -1T -2T -3T -5T +1T +2T +3T +5T
Wochen: 1W, 2W, 3W -1W -2W -3W +1W +2W +3W
Monate: 1M, 3M, 6M -1M -3M -6M +1M +3M +6M
Jahre:    1J, 3J, 5J, 10J -1J -3J -5J -10J +1J +3J +5J +10J
Nutze für die Darstellung ... ?
Originaldaten oder ...
Mittelwerte Minima Maxima auf...
Stundenbasis Tagesbasis Wochenbasis
Monatsbasis Jahresbasis      Datenbasis: Mittelwerte auf Tagesbasis
Darstellen als:
Statistik (Auto) Statistik J:M      Darstellung:
Zur Graphik,    zurück zur Übersicht aller Sensoren.
 
Tabellarische Datenbersicht: ?
 
Sensor: Nr:Datum:Temp:Feuchte:Taupunkt:
Aussen-T/F 1 16-09-2016 00:00:00 17.33889 C 85.6076 % 14.9 C
2 17-09-2016 00:00:00 15.96146 C 85.0660 % 13.45 C
3 18-09-2016 00:00:00 17.13993 C 89.9549 % 15.48 C
4 19-09-2016 00:00:00 15.49201 C 84.4688 % 12.89 C
5 20-09-2016 00:00:00 14.8184 C 88.4965 % 12.94 C
6 21-09-2016 00:00:00 13.86563 C 78.4618 % 10.19 C
7 22-09-2016 00:00:00 11.70625 C 84.6944 % 9.22 C
8 23-09-2016 00:00:00 13.62518 C 86.6383 % 11.44 C
9 24-09-2016 00:00:00 13.82326 C 85.2188 % 11.39 C
10 25-09-2016 00:00:00 14.39201 C 85.4653 % 11.99 C
11 26-09-2016 00:00:00 14.99062 C 86.0799 % 12.68 C
12 27-09-2016 00:00:00 13.42847 C 93.2951 % 12.37 C
13 28-09-2016 00:00:00 15.2816 C 85.6632 % 12.9 C
14 29-09-2016 00:00:00 18.69375 C 79.3299 % 15.04 C
15 30-09-2016 00:00:00 15.12813 C 89.0451 % 13.34 C
16 01-10-2016 00:00:00 13.55804 C 95.6643 % 12.88 C
17 02-10-2016 00:00:00 12.49271 C 89.3333 % 10.79 C
18 03-10-2016 00:00:00 12.49236 C 92.3958 % 11.29 C
19 04-10-2016 00:00:00 10.89931 C 93.8333 % 9.95 C
20 05-10-2016 00:00:00 8.62465 C 83.2986 % 5.96 C
21 06-10-2016 00:00:00 7.98125 C 88.4201 % 6.19 C
22 07-10-2016 00:00:00 10.85069 C 93.5208 % 9.85 C
23 08-10-2016 00:00:00 9.28854 C 94.1042 % 8.39 C
24 09-10-2016 00:00:00 8.50868 C 91.9167 % 7.27 C
25 10-10-2016 00:00:00 6.46875 C 92.8993 % 5.41 C
Sensor: Nr:Datum:Temp:Feuchte:Taupunkt:
Aussen-T/F 26 11-10-2016 00:00:00 7.98993 C 90.9514 % 6.61 C
27 12-10-2016 00:00:00 8.69201 C 90.6111 % 7.24 C
28 13-10-2016 00:00:00 7.54583 C 87.7118 % 5.64 C
29 14-10-2016 00:00:00 9.31042 C 87.7674 % 7.39 C
30 15-10-2016 00:00:00 11.21667 C 90.9028 % 9.79 C
31 16-10-2016 00:00:00 8.72222 C 95.3646 % 8.02 C
32 17-10-2016 00:00:00 10.64132 C 96.5833 % 10.12 C
33 18-10-2016 00:00:00 11.33924 C 92.4236 % 10.16 C
34 19-10-2016 00:00:00 9.26389 C 89.1597 % 7.57 C
35 20-10-2016 00:00:00 8.03368 C 95.9097 % 7.42 C
36 21-10-2016 00:00:00 7.65845 C 95.9498 % 7.05 C
37 22-10-2016 00:00:00 7.80729 C 96.0000 % 7.21 C
38 23-10-2016 00:00:00 6.84236 C 95.3368 % 6.15 C
39 24-10-2016 00:00:00 9.37778 C 96.9931 % 8.93 C
40 25-10-2016 00:00:00 11.21424 C 95.8507 % 10.58 C
41 26-10-2016 00:00:00 9.47049 C 94.1597 % 8.58 C
42 27-10-2016 00:00:00 8.9309 C 95.3750 % 8.23 C
43 28-10-2016 00:00:00 11.35833 C 91.6597 % 10.05 C
44 29-10-2016 00:00:00 11.58854 C 90.4965 % 10.09 C
45 30-10-2016 00:00:00 7.61215 C 95.8229 % 6.99 C
46 31-10-2016 00:00:00 7.10417 C 96.0694 % 6.52 C
47 01-11-2016 00:00:00 6.92431 C 97.0694 % 6.49 C
48 02-11-2016 00:00:00 7.39618 C 91.7292 % 6.14 C
49 03-11-2016 00:00:00 6.31493 C 91.8819 % 5.09 C
50 04-11-2016 00:00:00 4.72674 C 94.8819 % 3.98 C
Sensor: Nr:Datum:Temp:Feuchte:Taupunkt:
Aussen-T/F 51 05-11-2016 00:00:00 6.88299 C 96.7118 % 6.4 C
52 06-11-2016 00:00:00 5.54201 C 89.6458 % 3.98 C
53 07-11-2016 00:00:00 4.69097 C 93.6354 % 3.75 C
54 08-11-2016 00:00:00 3.20521 C 92.4167 % 2.1 C
55 09-11-2016 00:00:00 3.69722 C 94.5417 % 2.9 C
56 10-11-2016 00:00:00 5.22847 C 94.8403 % 4.47 C
57 11-11-2016 00:00:00 5.08785 C 96.2569 % 4.54 C
58 12-11-2016 00:00:00 2.06181 C 93.0764 % 1.06 C
59 13-11-2016 00:00:00 2.12049 C 91.5347 % 0.89 C
60 14-11-2016 00:00:00 -0.38611 C 93.0799 % -1.37 C
61 15-11-2016 00:00:00 4.75208 C 92.9931 % 3.72 C
62 16-11-2016 00:00:00 9.88715 C 95.6910 % 9.23 C
63 17-11-2016 00:00:00 10.99757 C 89.4340 % 9.33 C
64 18-11-2016 00:00:00 9.44792 C 85.6667 % 7.17 C
65 19-11-2016 00:00:00 5.51319 C 87.6146 % 3.63 C
66 20-11-2016 00:00:00 9.3559 C 81.1806 % 6.3 C
67 21-11-2016 00:00:00 10.27813 C 92.0208 % 9.04 C
68 22-11-2016 00:00:00 10.22222 C 93.8160 % 9.27 C
69 23-11-2016 00:00:00 8.56389 C 96.9931 % 8.11 C
70 24-11-2016 00:00:00 8.79306 C 94.5590 % 7.97 C
71 25-11-2016 00:00:00 7.72222 C 85.3924 % 5.43 C
72 26-11-2016 00:00:00 6.87708 C 88.3542 % 5.09 C
73 27-11-2016 00:00:00 5.11215 C 92.9514 % 4.07 C
74 28-11-2016 00:00:00 -0.13333 C 93.4583 % -1.06 C
75 29-11-2016 00:00:00 -2.74097 C 91.0382 % -4 C
Sensor: Nr:Datum:Temp:Feuchte:Taupunkt:
Aussen-T/F 76 30-11-2016 00:00:00 -2.71076 C 92.1319 % -3.81 C
77 01-12-2016 00:00:00 3.3875 C 84.6354 % 1.05 C
78 02-12-2016 00:00:00 5.17361 C 93.7917 % 4.26 C
79 03-12-2016 00:00:00 -0.32882 C 96.9410 % -0.75 C
80 04-12-2016 00:00:00 -2.61215 C 96.1840 % -3.13 C
81 05-12-2016 00:00:00 -3.83507 C 95.3438 % -4.47 C
82 06-12-2016 00:00:00 -3.15903 C 95.5972 % -3.76 C
83 07-12-2016 00:00:00 -0.29965 C 96.1111 % -0.84 C
84 08-12-2016 00:00:00 1.07778 C 94.8542 % 0.35 C
85 09-12-2016 00:00:00 6.58819 C 84.4861 % 4.17 C
86 10-12-2016 00:00:00 5.04201 C 91.7743 % 3.82 C
87 11-12-2016 00:00:00 8.10174 C 85.5174 % 5.82 C
88 12-12-2016 00:00:00 6.76563 C 92.9792 % 5.71 C
89 13-12-2016 00:00:00 4.10868 C 96.3160 % 3.58 C
90 14-12-2016 00:00:00 6.42569 C 95.7986 % 5.81 C
91 15-12-2016 00:00:00 6.89583 C 94.3924 % 6.06 C
92 16-12-2016 00:00:00 4.60451 C 88.2778 % 2.84 C
93 17-12-2016 00:00:00 3.86806 C 91.7222 % 2.65 C
94 18-12-2016 00:00:00 5.3059 C 94.3750 % 4.48 C
95 19-12-2016 00:00:00 4.3816 C 89.4236 % 2.8 C
96 20-12-2016 00:00:00 1.0875 C 91.6424 % -0.12 C
97 21-12-2016 00:00:00 2.26076 C 91.9444 % 1.09 C
98 22-12-2016 00:00:00 3.84896 C 93.6701 % 2.92 C
99 23-12-2016 00:00:00 4.14757 C 95.4340 % 3.48 C
100 24-12-2016 00:00:00 7.17188 C 86.6597 % 5.1 C
Sensor: Nr:Datum:Temp:Feuchte:Taupunkt:
Aussen-T/F 101 25-12-2016 00:00:00 8.5434 C 89.2674 % 6.88 C
102 26-12-2016 00:00:00 7.71215 C 88.2118 % 5.89 C
103 27-12-2016 00:00:00 4.30139 C 88.8160 % 2.62 C
104 28-12-2016 00:00:00 3.53819 C 90.0035 % 2.06 C
105 29-12-2016 00:00:00 -1.78438 C 96.3299 % -2.29 C
106 30-12-2016 00:00:00 -2.37014 C 96.3924 % -2.86 C
107 31-12-2016 00:00:00 -4.09028 C 95.6424 % -4.68 C
108 01-01-2017 00:00:00 -2.24792 C 95.3854 % -2.88 C
109 02-01-2017 00:00:00 0.68021 C 94.3229 % -0.12 C
110 03-01-2017 00:00:00 1.83819 C 91.4340 % 0.59 C
111 04-01-2017 00:00:00 3.52049 C 90.0556 % 2.05 C
112 05-01-2017 00:00:00 0.04687 C 83.2813 % -2.44 C
113 06-01-2017 00:00:00 -6.48125 C 90.3090 % -7.8 C
114 07-01-2017 00:00:00 -4.20694 C 86.7674 % -6.08 C
115 08-01-2017 00:00:00 0.59306 C 95.4583 % -0.05 C
116 09-01-2017 00:00:00 2.15 C 93.8819 % 1.27 C
117 10-01-2017 00:00:00 1.40799 C 95.5625 % 0.78 C
118 11-01-2017 00:00:00 3.72639 C 93.5799 % 2.79 C
119 12-01-2017 00:00:00 4.3066 C 88.2396 % 2.54 C
120 13-01-2017 00:00:00 2.18576 C 91.4097 % 0.94 C
121 14-01-2017 00:00:00 2.66806 C 85.3611 % 0.46 C
122 15-01-2017 00:00:00 0.83819 C 92.1910 % -0.28 C
123 16-01-2017 00:00:00 -1.62361 C 93.6910 % -2.5 C
124 17-01-2017 00:00:00 -3.91493 C 91.1875 % -5.14 C
125 18-01-2017 00:00:00 -5.38646 C 91.6875 % -6.52 C
Sensor: Nr:Datum:Temp:Feuchte:Taupunkt:
Aussen-T/F 126 19-01-2017 00:00:00 -6.17292 C 92.2153 % -7.23 C
127 20-01-2017 00:00:00 -6.54167 C 91.1458 % -7.74 C
128 21-01-2017 00:00:00 -5.94167 C 92.0660 % -7.02 C
129 22-01-2017 00:00:00 -7.48889 C 92.6806 % -8.47 C
130 23-01-2017 00:00:00 -5.41458 C 93.0035 % -6.36 C
131 24-01-2017 00:00:00 -0.75035 C 91.2257 % -2 C
132 25-01-2017 00:00:00 -1.16701 C 83.8021 % -3.55 C
133 26-01-2017 00:00:00 -1.71667 C 84.5069 % -3.98 C
134 27-01-2017 00:00:00 -3.44306 C 90.2188 % -4.81 C
135 28-01-2017 00:00:00 -1.90347 C 90.7083 % -3.22 C
136 29-01-2017 00:00:00 2.8691 C 91.9722 % 1.7 C
137 30-01-2017 00:00:00 4.73507 C 94.6528 % 3.95 C
138 31-01-2017 00:00:00 3.29583 C 91.5174 % 2.05 C
139 01-02-2017 00:00:00 3.48611 C 87.9896 % 1.69 C
140 02-02-2017 00:00:00 5.1434 C 94.4132 % 4.32 C
141 03-02-2017 00:00:00 5.66007 C 94.2396 % 4.81 C
142 04-02-2017 00:00:00 6.00556 C 89.9549 % 4.49 C
143 05-02-2017 00:00:00 4.83993 C 91.1181 % 3.52 C
144 06-02-2017 00:00:00 3.82396 C 89.6493 % 2.28 C
145 07-02-2017 00:00:00 4.2184 C 89.5347 % 2.66 C
146 08-02-2017 00:00:00 2.98785 C 85.8160 % 0.85 C
147 09-02-2017 00:00:00 0.05903 C 84.0729 % -2.3 C
148 10-02-2017 00:00:00 0.67222 C 82.7813 % -1.91 C
149 11-02-2017 00:00:00 1.79896 C 93.6910 % 0.89 C
150 12-02-2017 00:00:00 2.74132 C 92.1215 % 1.59 C
Sensor: Nr:Datum:Temp:Feuchte:Taupunkt:
Aussen-T/F 151 13-02-2017 00:00:00 3.48576 C 82.9653 % 0.87 C
152 14-02-2017 00:00:00 1.66042 C 85.0833 % -0.57 C
153 15-02-2017 00:00:00 2.27639 C 90.1181 % 0.83 C
154 16-02-2017 00:00:00 4.06597 C 95.0382 % 3.34 C
155 17-02-2017 00:00:00 6.02222 C 95.7882 % 5.4 C
156 18-02-2017 00:00:00 5.94097 C 89.9375 % 4.42 C
157 19-02-2017 00:00:00 3.47083 C 91.4722 % 2.22 C
158 20-02-2017 00:00:00 8.45104 C 91.1111 % 7.09 C
159 21-02-2017 00:00:00 10.41458 C 92.1806 % 9.2 C
160 22-02-2017 00:00:00 11.10243 C 86.9167 % 9.01 C
161 23-02-2017 00:00:00 9.37708 C 82.3160 % 6.52 C
162 24-02-2017 00:00:00 5.21007 C 80.1215 % 2.07 C
163 25-02-2017 00:00:00 3.83993 C 84.8889 % 1.54 C
164 26-02-2017 00:00:00 8.62951 C 75.2188 % 4.5 C
165 27-02-2017 00:00:00 10.96042 C 73.1771 % 6.35 C
166 28-02-2017 00:00:00 5.79618 C 82.1285 % 2.99 C
167 01-03-2017 00:00:00 6.67257 C 86.8229 % 4.64 C
168 02-03-2017 00:00:00 8.27986 C 68.5764 % 2.85 C
169 03-03-2017 00:00:00 6.21771 C 76.6840 % 2.44 C
170 04-03-2017 00:00:00 10.95451 C 72.5382 % 6.22 C
171 05-03-2017 00:00:00 7.21354 C 86.9063 % 5.18 C
172 06-03-2017 00:00:00 6.48333 C 88.9306 % 4.79 C
173 07-03-2017 00:00:00 6.06806 C 92.0243 % 4.87 C
174 08-03-2017 00:00:00 5.01528 C 95.6597 % 4.38 C
175 09-03-2017 00:00:00 11.11146 C 85.3472 % 8.75 C
Sensor: Nr:Datum:Temp:Feuchte:Taupunkt:
Aussen-T/F 176 10-03-2017 00:00:00 7.4684 C 74.9896 % 3.33 C
177 11-03-2017 00:00:00 6.7316 C 76.7847 % 2.95 C
178 12-03-2017 00:00:00 6.62813 C 73.0590 % 2.15 C
179 13-03-2017 00:00:00 6.71007 C 76.5278 % 2.88 C
180 14-03-2017 00:00:00 9.45625 C 79.7708 % 6.14 C
181 15-03-2017 00:00:00 10.41493 C 79.8819 % 7.1 C
182 16-03-2017 00:00:00 8.32569 C 79.1250 % 4.93 C
183 17-03-2017 00:00:00 8.68507 C 77.3438 % 4.95 C
184 18-03-2017 00:00:00 9.53889 C 87.9514 % 7.64 C
185 19-03-2017 00:00:00 12.1559 C 84.9444 % 9.7 C
186 20-03-2017 00:00:00 11.60278 C 74.2986 % 7.19 C
187 21-03-2017 00:00:00 9.375 C 83.3090 % 6.69 C
188 22-03-2017 00:00:00 5.39132 C 87.9861 % 3.57 C
189 23-03-2017 00:00:00 8.8434 C 81.9097 % 5.93 C
190 24-03-2017 00:00:00 9.49444 C 76.3194 % 5.54 C
191 25-03-2017 00:00:00 9.21424 C 65.5590 % 3.11 C
192 26-03-2017 00:00:00 9.36594 C 63.8080 % 2.87 C
193 27-03-2017 00:00:00 8.83194 C 64.8194 % 2.59 C
194 28-03-2017 00:00:00 10.73819 C 69.2431 % 5.34 C
195 29-03-2017 00:00:00 12.89063 C 73.7014 % 8.31 C
196 30-03-2017 00:00:00 14.33507 C 72.3819 % 9.44 C
197 31-03-2017 00:00:00 13.69896 C 69.0938 % 8.14 C
198 01-04-2017 00:00:00 13.59792 C 71.9792 % 8.65 C
199 02-04-2017 00:00:00 11.71736 C 74.2222 % 7.29 C
200 03-04-2017 00:00:00 10.47257 C 76.1042 % 6.45 C
Sensor: Nr:Datum:Temp:Feuchte:Taupunkt:
Aussen-T/F 201 04-04-2017 00:00:00 9.3059 C 73.6285 % 4.85 C
202 05-04-2017 00:00:00 8.78889 C 75.9444 % 4.79 C
203 06-04-2017 00:00:00 8.65278 C 73.7292 % 4.23 C
204 07-04-2017 00:00:00 11.31566 C 70.4578 % 6.14 C
205 08-04-2017 00:00:00 14.59887 C 63.6780 % 7.8 C
206 09-04-2017 00:00:00 12.46215 C 72.6910 % 7.7 C
207 10-04-2017 00:00:00 10.93993 C 75.5174 % 6.79 C
208 11-04-2017 00:00:00 9.67188 C 68.7778 % 4.22 C
209 12-04-2017 00:00:00 11.34167 C 67.3993 % 5.53 C
210 13-04-2017 00:00:00 11.57153 C 68.3403 % 5.95 C
211 14-04-2017 00:00:00 9.77708 C 68.5660 % 4.28 C
212 15-04-2017 00:00:00 9.0875 C 81.6493 % 6.12 C
213 16-04-2017 00:00:00 7.52083 C 79.0590 % 4.13 C
214 17-04-2017 00:00:00 6.82257 C 84.8090 % 4.45 C
215 18-04-2017 00:00:00 5.52187 C 80.9167 % 2.51 C
216 19-04-2017 00:00:00 4.23646 C 70.6042 % -0.62 C
217 20-04-2017 00:00:00 4.68715 C 68.7882 % -0.54 C
218 21-04-2017 00:00:00 7.98299 C 70.7431 % 3 C
219 22-04-2017 00:00:00 9.60278 C 72.4063 % 4.89 C
220 23-04-2017 00:00:00 7.34722 C 68.6632 % 1.98 C
221 24-04-2017 00:00:00 8.25764 C 68.6424 % 2.84 C
222 25-04-2017 00:00:00 8.07118 C 68.6493 % 2.67 C
223 26-04-2017 00:00:00 7.03611 C 68.0208 % 1.55 C
224 27-04-2017 00:00:00 7.07917 C 67.6528 % 1.51 C
225 28-04-2017 00:00:00 6.15972 C 79.5104 % 2.89 C
Sensor: Nr:Datum:Temp:Feuchte:Taupunkt:
Aussen-T/F 226 29-04-2017 00:00:00 8.79132 C 71.5069 % 3.93 C
227 30-04-2017 00:00:00 11.04896 C 60.7951 % 3.78 C
228 01-05-2017 00:00:00 10.13576 C 85.0347 % 7.74 C
229 02-05-2017 00:00:00 9.00868 C 95.4549 % 8.32 C
230 03-05-2017 00:00:00 10.15694 C 90.6042 % 8.69 C
231 04-05-2017 00:00:00 11.64722 C 89.7361 % 10.02 C
232 05-05-2017 00:00:00 11.58021 C 81.0417 % 8.44 C
233 06-05-2017 00:00:00 12.91042 C 78.0139 % 9.17 C
234 07-05-2017 00:00:00 13.1434 C 93.6319 % 12.14 C
235 08-05-2017 00:00:00 9.64306 C 86.9063 % 7.57 C
236 09-05-2017 00:00:00 9.69931 C 70.4861 % 4.6 C
237 10-05-2017 00:00:00 10.29583 C 70.5590 % 5.19 C
238 11-05-2017 00:00:00 14.23542 C 73.0590 % 9.48 C
239 12-05-2017 00:00:00 15.89479 C 85.6250 % 13.49 C
240 13-05-2017 00:00:00 17.24514 C 75.3472 % 12.85 C
241 14-05-2017 00:00:00 16.17049 C 80.8993 % 12.89 C
242 15-05-2017 00:00:00 15.43403 C 72.0104 % 10.42 C
243 16-05-2017 00:00:00 18.86458 C 61.2049 % 11.24 C
244 17-05-2017 00:00:00 20.20243 C 65.0521 % 13.43 C
245 18-05-2017 00:00:00 17.96042 C 84.5729 % 15.32 C
246 19-05-2017 00:00:00 13.45694 C 96.0694 % 12.84 C
247 20-05-2017 00:00:00 12.04375 C 83.9931 % 9.43 C
248 21-05-2017 00:00:00 13.43889 C 75.2118 % 9.14 C
249 22-05-2017 00:00:00 16.05417 C 73.8090 % 11.39 C
250 23-05-2017 00:00:00 18.46736 C 69.4410 % 12.78 C
Sensor: Nr:Datum:Temp:Feuchte:Taupunkt:
Aussen-T/F 251 24-05-2017 00:00:00 16.81771 C 73.7639 % 12.11 C
252 25-05-2017 00:00:00 18.59167 C 70.2604 % 13.07 C
253 26-05-2017 00:00:00 18.71042 C 70.8472 % 13.31 C
254 27-05-2017 00:00:00 21.17049 C 66.6285 % 14.72 C
255 28-05-2017 00:00:00 21.21493 C 78.3993 % 17.31 C
256 29-05-2017 00:00:00 23.54271 C 75.5660 % 18.97 C
257 30-05-2017 00:00:00 21.97847 C 74.9549 % 17.33 C
258 31-05-2017 00:00:00 18.61667 C 68.5278 % 12.72 C
259 01-06-2017 00:00:00 18.99792 C 71.5590 % 13.74 C
260 02-06-2017 00:00:00 19.04583 C 83.6771 % 16.22 C
261 03-06-2017 00:00:00 18.89236 C 93.4132 % 17.81 C
262 04-06-2017 00:00:00 16.44306 C 84.5556 % 13.83 C
263 05-06-2017 00:00:00 16.50278 C 76.9792 % 12.46 C
264 06-06-2017 00:00:00 15.18958 C 77.8750 % 11.36 C
265 07-06-2017 00:00:00 13.87778 C 75.5347 % 9.63 C
266 08-06-2017 00:00:00 18.08924 C 68.5382 % 12.21 C
267 09-06-2017 00:00:00 16.93299 C 81.6319 % 13.77 C
268 10-06-2017 00:00:00 17.78368 C 70.4792 % 12.35 C
269 11-06-2017 00:00:00 20.38229 C 71.8993 % 15.15 C
270 12-06-2017 00:00:00 20.21667 C 59.4410 % 12.07 C
271 13-06-2017 00:00:00 17.4059 C 67.4549 % 11.32 C
272 14-06-2017 00:00:00 18.66597 C 69.6042 % 13 C
273 15-06-2017 00:00:00 21.18299 C 70.3333 % 15.57 C
274 16-06-2017 00:00:00 18.97743 C 62.8646 % 11.75 C
275 17-06-2017 00:00:00 17.05035 C 76.4444 % 12.88 C
Sensor: Nr:Datum:Temp:Feuchte:Taupunkt:
Aussen-T/F 276 18-06-2017 00:00:00 21.54514 C 69.8229 % 15.8 C
277 19-06-2017 00:00:00 22.06667 C 64.3160 % 15.02 C
278 20-06-2017 00:00:00 23.55069 C 62.5590 % 15.99 C
279 21-06-2017 00:00:00 25.2191 C 62.1146 % 17.45 C
280 22-06-2017 00:00:00 23.325 C 77.8264 % 19.23 C
281 23-06-2017 00:00:00 22.47014 C 68.4063 % 16.36 C
282 24-06-2017 00:00:00 20.09028 C 64.8924 % 13.28 C
283 25-06-2017 00:00:00 20.12639 C 70.0938 % 14.51 C
284 26-06-2017 00:00:00 21.1184 C 67.1667 % 14.79 C
285 27-06-2017 00:00:00 18.80104 C 85.3229 % 16.29 C
286 28-06-2017 00:00:00 19.80208 C 90.8299 % 18.26 C
287 29-06-2017 00:00:00 17.97535 C 86.2396 % 15.64 C
288 30-06-2017 00:00:00 17.41624 C 77.3875 % 13.42 C
289 01-07-2017 00:00:00 16.45451 C 89.6250 % 14.74 C
290 02-07-2017 00:00:00 16.87188 C 88.2361 % 14.91 C
291 03-07-2017 00:00:00 17.94201 C 72.9201 % 13.02 C
292 04-07-2017 00:00:00 19.98993 C 68.9375 % 14.12 C
293 05-07-2017 00:00:00 21.5875 C 69.0903 % 15.68 C
294 06-07-2017 00:00:00 21.41701 C 76.5278 % 17.12 C
295 07-07-2017 00:00:00 23.46076 C 73.7674 % 18.51 C
296 08-07-2017 00:00:00 22.5559 C 70.5035 % 16.92 C
297 09-07-2017 00:00:00 22.69271 C 74.1007 % 17.84 C
298 10-07-2017 00:00:00 19.75243 C 93.9792 % 18.76 C
299 11-07-2017 00:00:00 19.33264 C 81.8993 % 16.16 C
300 12-07-2017 00:00:00 17.22951 C 89.4514 % 15.48 C
Sensor: Nr:Datum:Temp:Feuchte:Taupunkt:
Aussen-T/F 301 13-07-2017 00:00:00 15.53958 C 75.6667 % 11.26 C
302 14-07-2017 00:00:00 16.34653 C 77.4965 % 12.41 C
303 15-07-2017 00:00:00 16.46389 C 74.5417 % 11.93 C
304 16-07-2017 00:00:00 19.03924 C 81.1215 % 15.73 C
305 17-07-2017 00:00:00 20.61007 C 81.2743 % 17.29 C
306 18-07-2017 00:00:00 21.7625 C 75.4965 % 17.24 C
307 19-07-2017 00:00:00 23.46806 C 73.3090 % 18.42 C
308 20-07-2017 00:00:00 21.83889 C 79.5764 % 18.15 C
309 21-07-2017 00:00:00 20.14583 C 71.6979 % 14.88 C
310 22-07-2017 00:00:00 21.77813 C 82.2743 % 18.62 C
311 23-07-2017 00:00:00 18.27639 C 78.7153 % 14.52 C
312 24-07-2017 00:00:00 14.9816 C 91.3681 % 13.59 C
313 25-07-2017 00:00:00 14.46979 C 96.2014 % 13.87 C
314 26-07-2017 00:00:00 17.50729 C 86.0139 % 15.14 C
315 27-07-2017 00:00:00 18.9184 C 89.6250 % 17.18 C
316 28-07-2017 00:00:00 17.14236 C 83.5694 % 14.34 C
317 29-07-2017 00:00:00 20.44271 C 81.0174 % 17.07 C
318 30-07-2017 00:00:00 22.74236 C 73.6667 % 17.8 C
319 31-07-2017 00:00:00 20.73542 C 77.8750 % 16.74 C
320 01-08-2017 00:00:00 19.90799 C 94.6424 % 19.02 C
321 02-08-2017 00:00:00 21.09306 C 86.4688 % 18.75 C
322 03-08-2017 00:00:00 21.32153 C 83.4271 % 18.4 C
323 04-08-2017 00:00:00 20.4309 C 76.2500 % 16.11 C
324 05-08-2017 00:00:00 18.99826 C 79.7326 % 15.42 C
325 06-08-2017 00:00:00 17.06181 C 74.4028 % 12.48 C
Sensor: Nr:Datum:Temp:Feuchte:Taupunkt:
Aussen-T/F 326 07-08-2017 00:00:00 17.21319 C 74.5313 % 12.65 C
327 08-08-2017 00:00:00 17.34063 C 86.7500 % 15.11 C
328 09-08-2017 00:00:00 17.64167 C 77.9826 % 13.76 C
329 10-08-2017 00:00:00 15.45139 C 94.6771 % 14.6 C
330 11-08-2017 00:00:00 14.99271 C 95.3889 % 14.26 C
331 12-08-2017 00:00:00 15.39965 C 94.4688 % 14.52 C
332 13-08-2017 00:00:00 18.25694 C 84.2813 % 15.56 C
333 14-08-2017 00:00:00 18.07396 C 87.2535 % 15.92 C
334 15-08-2017 00:00:00 18.78299 C 93.5243 % 17.72 C
335 16-08-2017 00:00:00 19.80486 C 87.2847 % 17.63 C
336 17-08-2017 00:00:00 19.18438 C 87.3125 % 17.02 C
337 18-08-2017 00:00:00 18.28819 C 94.1632 % 17.33 C
338 19-08-2017 00:00:00 14.62049 C 90.6076 % 13.1 C
339 20-08-2017 00:00:00 14.85243 C 86.3993 % 12.6 C
340 21-08-2017 00:00:00 15.85833 C 82.2049 % 12.83 C
341 22-08-2017 00:00:00 15.7316 C 84.9097 % 13.2 C
342 23-08-2017 00:00:00 17.82812 C 84.2535 % 15.14 C
343 24-08-2017 00:00:00 19.30625 C 82.1632 % 16.19 C
344 25-08-2017 00:00:00 18.12049 C 89.3993 % 16.35 C
345 26-08-2017 00:00:00 20.59861 C 92.9132 % 19.41 C
346 27-08-2017 00:00:00 19.43507 C 89.5035 % 17.66 C
347 28-08-2017 00:00:00 19.49063 C 85.7882 % 17.05 C
348 29-08-2017 00:00:00 19.97986 C 86.3507 % 17.63 C
349 30-08-2017 00:00:00 20.58819 C 89.0903 % 18.73 C
350 31-08-2017 00:00:00 17.03194 C 87.1493 % 14.88 C
Sensor: Nr:Datum:Temp:Feuchte:Taupunkt:
Aussen-T/F 351 01-09-2017 00:00:00 13.72639 C 88.3785 % 11.84 C
352 02-09-2017 00:00:00 14.2625 C 89.4271 % 12.55 C
353 03-09-2017 00:00:00 13.22257 C 87.7743 % 11.24 C
354 04-09-2017 00:00:00 13.75208 C 90.0313 % 12.15 C
355 05-09-2017 00:00:00 17.85347 C 90.3160 % 16.25 C
356 06-09-2017 00:00:00 17.36389 C 78.5868 % 13.61 C
357 07-09-2017 00:00:00 15.38472 C 80.6389 % 12.08 C
358 08-09-2017 00:00:00 15.88958 C 80.7917 % 12.6 C
359 09-09-2017 00:00:00 14.59236 C 91.5764 % 13.24 C
360 10-09-2017 00:00:00 13.23924 C 88.7951 % 11.43 C
361 11-09-2017 00:00:00 14.41667 C 84.9861 % 11.93 C
362 12-09-2017 00:00:00 14.27674 C 84.4097 % 11.69 C
363 13-09-2017 00:00:00 14.43993 C 87.5729 % 12.4 C
364 14-09-2017 00:00:00 11.98194 C 92.1076 % 10.74 C
365 15-09-2017 00:00:00 12.37917 C 88.0347 % 10.46 C
366 16-09-2017 00:00:00 10.41007 C 88.3021 % 8.56 C
367 17-09-2017 00:00:00 9.97118 C 94.9861 % 9.21 C
368 18-09-2017 00:00:00 10.50764 C 90.8785 % 9.08 C
369 19-09-2017 00:00:00 11.95903 C 92.7049 % 10.82 C
370 20-09-2017 00:00:00 11.3184 C 92.6076 % 10.17 C
371 21-09-2017 00:00:00 10.7559 C 92.2222 % 9.55 C
372 22-09-2017 00:00:00 11.39757 C 92.7222 % 10.26 C
373 23-09-2017 00:00:00 13.63785 C 89.4965 % 11.94 C
374 24-09-2017 00:00:00 12.54826 C 93.5660 % 11.54 C
375 25-09-2017 00:00:00 12.85729 C 92.9514 % 11.75 C
Sensor: Nr:Datum:Temp:Feuchte:Taupunkt:
Aussen-T/F 376 26-09-2017 00:00:00 13.54097 C 92.1389 % 12.29 C
377 27-09-2017 00:00:00 13.15069 C 94.1597 % 12.23 C
378 28-09-2017 00:00:00 14.79861 C 93.9063 % 13.83 C
379 29-09-2017 00:00:00 17.64722 C 91.7083 % 16.28 C
380 30-09-2017 00:00:00 14.56597 C 95.2326 % 13.81 C
381 01-10-2017 00:00:00 11.45937 C 95.0451 % 10.69 C
382 02-10-2017 00:00:00 14.42951 C 92.9132 % 13.3 C
383 03-10-2017 00:00:00 12.49618 C 88.9201 % 10.72 C
384 04-10-2017 00:00:00 11.37812 C 88.0972 % 9.48 C
385 05-10-2017 00:00:00 12.35868 C 85.7847 % 10.05 C
386 06-10-2017 00:00:00 9.83438 C 91.6285 % 8.54 C
387 07-10-2017 00:00:00 10.24653 C 89.7535 % 8.64 C
388 08-10-2017 00:00:00 11.93993 C 93.6181 % 10.94 C
389 09-10-2017 00:00:00 11.42222 C 93.6285 % 10.43 C
390 10-10-2017 00:00:00 13.19062 C 93.1424 % 12.11 C
391 11-10-2017 00:00:00 13.59722 C 90.6111 % 12.09 C
392 12-10-2017 00:00:00 13.7684 C 84.9618 % 11.29 C
393 13-10-2017 00:00:00 14.15556 C 91.8646 % 12.85 C
394 14-10-2017 00:00:00 13.13611 C 95.3750 % 12.41 C
395 15-10-2017 00:00:00 12.53021 C 95.9410 % 11.9 C
396 16-10-2017 00:00:00 13.45347 C 95.6215 % 12.77 C
397 17-10-2017 00:00:00 13.09201 C 95.8299 % 12.44 C
398 18-10-2017 00:00:00 12.20313 C 95.8264 % 11.56 C
399 19-10-2017 00:00:00 11.5059 C 95.8472 % 10.87 C
400 20-10-2017 00:00:00 10.5122 C 88.5610 % 8.71 C
Sensor: Nr:Datum:Temp:Feuchte:Taupunkt:
Aussen-T/F 401 21-10-2017 00:00:00 11.76076 C 91.4410 % 10.41 C
402 22-10-2017 00:00:00 10.78507 C 85.4340 % 8.44 C
403 23-10-2017 00:00:00 10.79653 C 87.4826 % 8.8 C
404 24-10-2017 00:00:00 13.69826 C 91.2465 % 12.3 C
405 25-10-2017 00:00:00 15.51111 C 87.4271 % 13.43 C
406 26-10-2017 00:00:00 13.26736 C 91.1389 % 11.85 C
407 27-10-2017 00:00:00 11.49132 C 89.5660 % 9.84 C
408 28-10-2017 00:00:00 10.36076 C 83.1944 % 7.64 C
409 29-10-2017 00:00:00 10.65694 C 82.5243 % 7.81 C
410 30-10-2017 00:00:00 7.17326 C 85.5243 % 4.91 C
411 31-10-2017 00:00:00 7.26806 C 85.6944 % 5.04 C
412 01-11-2017 00:00:00 8.73021 C 85.5313 % 6.44 C
413 02-11-2017 00:00:00 8.66389 C 87.8333 % 6.76 C
414 03-11-2017 00:00:00 7.17014 C 93.6285 % 6.21 C
415 04-11-2017 00:00:00 8.34132 C 94.7292 % 7.55 C
416 05-11-2017 00:00:00 8.89965 C 92.2083 % 7.71 C
417 06-11-2017 00:00:00 5.51424 C 92.8542 % 4.45 C
418 07-11-2017 00:00:00 4.45868 C 95.0833 % 3.74 C
419 08-11-2017 00:00:00 6.63854 C 96.5035 % 6.12 C
420 09-11-2017 00:00:00 7.54028 C 95.7569 % 6.91 C
421 10-11-2017 00:00:00 7.46563 C 90.7535 % 6.06 C
422 11-11-2017 00:00:00 6.4559 C 93.8090 % 5.53 C
423 12-11-2017 00:00:00 4.6809 C 96.1632 % 4.12 C
424 13-11-2017 00:00:00 5.61111 C 92.8125 % 4.54 C
425 14-11-2017 00:00:00 4.67951 C 94.3785 % 3.86 C
Sensor: Nr:Datum:Temp:Feuchte:Taupunkt:
Aussen-T/F 426 15-11-2017 00:00:00 6.91389 C 90.0799 % 5.4 C
427 16-11-2017 00:00:00 4.84201 C 93.1424 % 3.83 C
428 17-11-2017 00:00:00 6.01007 C 95.7535 % 5.38 C
429 18-11-2017 00:00:00 3.55278 C 91.3403 % 2.28 C
430 19-11-2017 00:00:00 5.66389 C 89.5764 % 4.09 C
431 20-11-2017 00:00:00 5.24618 C 91.6250 % 4 C
432 21-11-2017 00:00:00 9.24063 C 90.6597 % 7.79 C
433 22-11-2017 00:00:00 8.26528 C 88.1146 % 6.42 C
434 23-11-2017 00:00:00 9.3059 C 88.0486 % 7.43 C
435 24-11-2017 00:00:00 10.45451 C 92.4028 % 9.28 C
436 25-11-2017 00:00:00 5.3059 C 95.5521 % 4.65 C
437 26-11-2017 00:00:00 3.77986 C 88.7986 % 2.11 C
438 27-11-2017 00:00:00 5.66632 C 87.1875 % 3.71 C
439 28-11-2017 00:00:00 4.26181 C 94.5347 % 3.46 C
440 29-11-2017 00:00:00 3.03576 C 95.4618 % 2.38 C
441 30-11-2017 00:00:00 2.44201 C 95.3958 % 1.78 C
442 01-12-2017 00:00:00 1.13021 C 95.6389 % 0.51 C
443 02-12-2017 00:00:00 0.97604 C 94.2361 % 0.16 C
444 03-12-2017 00:00:00 0.67674 C 93.3958 % -0.26 C
445 04-12-2017 00:00:00 3.2816 C 95.5799 % 2.64 C
446 05-12-2017 00:00:00 4.74826 C 93.4792 % 3.79 C
447 06-12-2017 00:00:00 5.89792 C 90.1493 % 4.41 C
448 07-12-2017 00:00:00 4.77986 C 86.2465 % 2.68 C
449 08-12-2017 00:00:00 3.52014 C 88.7153 % 1.84 C
450 09-12-2017 00:00:00 1.27569 C 83.4618 % -1.21 C
Sensor: Nr:Datum:Temp:Feuchte:Taupunkt:
Aussen-T/F 451 10-12-2017 00:00:00 2.40903 C 88.7049 % 0.74 C
452 11-12-2017 00:00:00 6.02118 C 93.7708 % 5.1 C
453 12-12-2017 00:00:00 3.72292 C 84.9792 % 1.44 C
454 13-12-2017 00:00:00 3.81597 C 89.6875 % 2.28 C
455 14-12-2017 00:00:00 4.58611 C 90.0625 % 3.1 C
456 15-12-2017 00:00:00 2.98611 C 95.5903 % 2.35 C
457 16-12-2017 00:00:00 3.04167 C 95.9618 % 2.46 C
458 17-12-2017 00:00:00 3.05208 C 92.1076 % 1.9 C
459 18-12-2017 00:00:00 1.66944 C 95.4444 % 1.02 C
460 19-12-2017 00:00:00 3.35556 C 97.1146 % 2.94 C
461 20-12-2017 00:00:00 5.65625 C 97.6389 % 5.31 C
462 21-12-2017 00:00:00 7.51667 C 97.5556 % 7.16 C
463 22-12-2017 00:00:00 8.8125 C 97.8889 % 8.5 C
464 23-12-2017 00:00:00 8.76389 C 93.7813 % 7.82 C
465 24-12-2017 00:00:00 8.92292 C 88.6319 % 7.15 C
466 25-12-2017 00:00:00 6.77708 C 85.7292 % 4.56 C
467 26-12-2017 00:00:00 4.68299 C 90.7431 % 3.3 C
468 27-12-2017 00:00:00 5.13993 C 92.8854 % 4.09 C
469 28-12-2017 00:00:00 3.24826 C 88.2396 % 1.49 C
470 29-12-2017 00:00:00 2.41944 C 88.1667 % 0.67 C
471 30-12-2017 00:00:00 7.77187 C 90.7882 % 6.36 C
472 31-12-2017 00:00:00 12.74549 C 82.5729 % 9.86 C
473 01-01-2018 00:00:00 7.71458 C 84.2153 % 5.22 C
474 02-01-2018 00:00:00 6.21076 C 88.1979 % 4.41 C
475 03-01-2018 00:00:00 8.40313 C 84.5174 % 5.95 C
Sensor: Nr:Datum:Temp:Feuchte:Taupunkt:
Aussen-T/F 476 04-01-2018 00:00:00 8.24792 C 89.7014 % 6.66 C
477 05-01-2018 00:00:00 8.32257 C 89.6424 % 6.72 C
478 06-01-2018 00:00:00 6.22188 C 96.7917 % 5.75 C
479 07-01-2018 00:00:00 5.11458 C 92.0417 % 3.93 C
480 08-01-2018 00:00:00 4.61597 C 89.1007 % 2.98 C
481 09-01-2018 00:00:00 5.0191 C 93.0521 % 3.99 C
482 10-01-2018 00:00:00 6.95243 C 92.3472 % 5.8 C
483 11-01-2018 00:00:00 6.99653 C 95.0660 % 6.26 C
484 12-01-2018 00:00:00 6.57708 C 95.7674 % 5.95 C
485 13-01-2018 00:00:00 5.39062 C 89.7813 % 3.85 C
486 14-01-2018 00:00:00 2.95174 C 85.5208 % 0.77 C
487 15-01-2018 00:00:00 3.65833 C 91.1181 % 2.35 C
488 16-01-2018 00:00:00 6.14618 C 85.7569 % 3.94 C
489 17-01-2018 00:00:00 3.45868 C 86.7569 % 1.47 C
490 18-01-2018 00:00:00 5.94167 C 81.9479 % 3.1 C
491 19-01-2018 00:00:00 3.96146 C 86.6771 % 1.95 C
492 20-01-2018 00:00:00 3.05937 C 91.0486 % 1.74 C
493 21-01-2018 00:00:00 2.72951 C 93.5451 % 1.8 C
494 22-01-2018 00:00:00 5.11563 C 93.7708 % 4.2 C
495 23-01-2018 00:00:00 7.37049 C 88.6250 % 5.62 C
496 24-01-2018 00:00:00 11.38021 C 86.3785 % 9.19 C
497 25-01-2018 00:00:00 9.87465 C 92.0243 % 8.64 C
498 26-01-2018 00:00:00 6.62222 C 95.7396 % 5.99 C
499 27-01-2018 00:00:00 4.73299 C 95.1771 % 4.03 C
500 28-01-2018 00:00:00 7.29028 C 89.6285 % 5.7 C
Sensor: Nr:Datum:Temp:Feuchte:Taupunkt:
Aussen-T/F 501 29-01-2018 00:00:00 9.82882 C 85.7674 % 7.56 C
502 30-01-2018 00:00:00 5.41111 C 90.5104 % 3.99 C
503 31-01-2018 00:00:00 7.52153 C 91.0938 % 6.16 C
504 01-02-2018 00:00:00 3.10243 C 90.1632 % 1.65 C
505 02-02-2018 00:00:00 3.41285 C 90.8958 % 2.07 C
506 03-02-2018 00:00:00 3.47118 C 87.7292 % 1.63 C
507 04-02-2018 00:00:00 1.1434 C 87.0208 % -0.77 C
508 05-02-2018 00:00:00 0.32431 C 82.9236 % -2.23 C
509 06-02-2018 00:00:00 -0.78056 C 89.0174 % -2.36 C
510 07-02-2018 00:00:00 -0.06111 C 91.5799 % -1.26 C
511 08-02-2018 00:00:00 -2.18819 C 88.7396 % -3.79 C
512 09-02-2018 00:00:00 -1.96007 C 92.3854 % -3.03 C
513 10-02-2018 00:00:00 2.22257 C 88.0660 % 0.46 C
514 11-02-2018 00:00:00 3.32535 C 86.3333 % 1.27 C
515 12-02-2018 00:00:00 2.1059 C 85.9479 % 0.01 C
516 13-02-2018 00:00:00 -0.32674 C 85.2257 % -2.5 C
517 14-02-2018 00:00:00 -1.52222 C 83.5069 % -3.95 C
518 15-02-2018 00:00:00 1.83299 C 89.2535 % 0.26 C
519 16-02-2018 00:00:00 2.01597 C 96.2500 % 1.48 C
520 17-02-2018 00:00:00 0.40521 C 93.6354 % -0.5 C
521 18-02-2018 00:00:00 -1.01701 C 92.6701 % -2.05 C
522 19-02-2018 00:00:00 1.11667 C 88.7049 % -0.53 C
523 20-02-2018 00:00:00 0.74271 C 87.0313 % -1.16 C
524 21-02-2018 00:00:00 1.21181 C 77.1493 % -2.34 C
525 22-02-2018 00:00:00 -0.03507 C 74.0938 % -4.09 C
Sensor: Nr:Datum:Temp:Feuchte:Taupunkt:
Aussen-T/F 526 23-02-2018 00:00:00 -0.725 C 62.2674 % -7.03 C
527 24-02-2018 00:00:00 -1.57049 C 63.0625 % -7.67 C
528 25-02-2018 00:00:00 -2.70729 C 52.6701 % -11.03 C
529 26-02-2018 00:00:00 -4.18854 C 66.9375 % -9.4 C
530 27-02-2018 00:00:00 -6.00417 C 70.8264 % -10.43 C
531 28-02-2018 00:00:00 -6.7066 C 65.9757 % -11.99 C
532 01-03-2018 00:00:00 -2.91424 C 54.5035 % -10.79 C
533 02-03-2018 00:00:00 -2.40208 C 62.9826 % -8.48 C
534 03-03-2018 00:00:00 -0.40937 C 89.6736 % -1.89 C
535 04-03-2018 00:00:00 4.02986 C 90.9965 % 2.7 C
536 05-03-2018 00:00:00 5.96979 C 85.9965 % 3.81 C
537 06-03-2018 00:00:00 4.90694 C 86.9583 % 2.92 C
538 07-03-2018 00:00:00 5.39792 C 90.0556 % 3.9 C
539 08-03-2018 00:00:00 6.19653 C 83.8368 % 3.67 C
540 09-03-2018 00:00:00 5.56528 C 93.9514 % 4.67 C
541 10-03-2018 00:00:00 10.03125 C 92.4792 % 8.87 C
542 11-03-2018 00:00:00 10.51493 C 91.3854 % 9.17 C
543 12-03-2018 00:00:00 9.7 C 90.2813 % 8.19 C
544 13-03-2018 00:00:00 7.76667 C 88.1215 % 5.93 C
545 14-03-2018 00:00:00 6.86458 C 83.6076 % 4.29 C
546 15-03-2018 00:00:00 6.40382 C 83.6319 % 3.84 C
547 16-03-2018 00:00:00 7.64097 C 94.7813 % 6.86 C
548 17-03-2018 00:00:00 -0.44516 C 83.0573 % -2.96 C
549 18-03-2018 00:00:00 -1.64028 C 75.3299 % -5.42 C
550 19-03-2018 00:00:00 -0.54479 C 65.7778 % -6.15 C
Sensor: Nr:Datum:Temp:Feuchte:Taupunkt:
Aussen-T/F 551 20-03-2018 00:00:00 0.29653 C 73.5035 % -3.87 C
552 21-03-2018 00:00:00 1.2059 C 76.4132 % -2.47 C
553 22-03-2018 00:00:00 3.06319 C 89.6667 % 1.54 C
554 23-03-2018 00:00:00 6.14028 C 89.0799 % 4.48 C
555 24-03-2018 00:00:00 5.20069 C 79.8715 % 2.02 C
556 25-03-2018 00:00:00 5.42862 C 76.5217 % 1.64 C
557 26-03-2018 00:00:00 7.61146 C 73.0313 % 3.1 C
558 27-03-2018 00:00:00 5.82222 C 83.6181 % 3.27 C
559 28-03-2018 00:00:00 8.50799 C 92.0278 % 7.29 C
560 29-03-2018 00:00:00 7.11424 C 75.6701 % 3.12 C
561 30-03-2018 00:00:00 6.82813 C 81.6910 % 3.92 C
562 31-03-2018 00:00:00 8.09792 C 78.7083 % 4.63 C
563 01-04-2018 00:00:00 7.66979 C 81.5451 % 4.72 C
564 02-04-2018 00:00:00 8.78611 C 74.8715 % 4.58 C
565 03-04-2018 00:00:00 13.35 C 67.7257 % 7.51 C
566 04-04-2018 00:00:00 11.17187 C 85.0486 % 8.76 C
567 05-04-2018 00:00:00 8.16042 C 84.2049 % 5.66 C
568 06-04-2018 00:00:00 6.97187 C 72.9167 % 2.46 C
569 07-04-2018 00:00:00 12.50035 C 66.5174 % 6.44 C
570 08-04-2018 00:00:00 14.90417 C 67.3368 % 8.91 C
571 09-04-2018 00:00:00 13.73333 C 72.7188 % 8.93 C
572 10-04-2018 00:00:00 13.3816 C 78.1875 % 9.66 C
573 11-04-2018 00:00:00 11.50035 C 87.5035 % 9.5 C
574 12-04-2018 00:00:00 13.06493 C 80.5000 % 9.79 C
575 13-04-2018 00:00:00 10.32188 C 88.1458 % 8.45 C
Sensor: Nr:Datum:Temp:Feuchte:Taupunkt:
Aussen-T/F 576 14-04-2018 00:00:00 13.08403 C 76.3056 % 9.01 C
577 15-04-2018 00:00:00 14.37465 C 81.8542 % 11.32 C
578 16-04-2018 00:00:00 13.42882 C 78.5417 % 9.78 C
579 17-04-2018 00:00:00 13.72569 C 74.7569 % 9.33 C
580 18-04-2018 00:00:00 15.73264 C 69.7882 % 10.23 C
581 19-04-2018 00:00:00 17.21806 C 66.2847 % 10.88 C
582 20-04-2018 00:00:00 17.08681 C 67.8229 % 11.1 C
583 21-04-2018 00:00:00 18.09931 C 71.2639 % 12.82 C
584 22-04-2018 00:00:00 18.53681 C 73.1042 % 13.63 C
585 23-04-2018 00:00:00 18.01181 C 70.6181 % 12.6 C
586 24-04-2018 00:00:00 14.03854 C 72.5938 % 9.2 C
587 25-04-2018 00:00:00 13.47917 C 75.5694 % 9.25 C
588 26-04-2018 00:00:00 11.09167 C 65.0868 % 4.79 C
589 27-04-2018 00:00:00 11.96181 C 67.8333 % 6.21 C
590 28-04-2018 00:00:00 12.62917 C 72.8854 % 7.9 C
591 29-04-2018 00:00:00 14.24792 C 85.8194 % 11.91 C
592 30-04-2018 00:00:00 13.44931 C 77.7604 % 9.65 C
593 01-05-2018 00:00:00 9.59063 C 69.6354 % 4.32 C
594 02-05-2018 00:00:00 9.44549 C 75.6910 % 5.38 C
595 03-05-2018 00:00:00 12.35347 C 68.5729 % 6.74 C
596 04-05-2018 00:00:00 13.14618 C 65.4722 % 6.83 C
597 05-05-2018 00:00:00 15.50764 C 61.2708 % 8.09 C
598 06-05-2018 00:00:00 17.0059 C 57.6563 % 8.6 C
599 07-05-2018 00:00:00 17.60312 C 61.7674 % 10.19 C
600 08-05-2018 00:00:00 18.08264 C 62.5556 % 10.83 C
Sensor: Nr:Datum:Temp:Feuchte:Taupunkt:
Aussen-T/F 601 09-05-2018 00:00:00 17.125 C 71.3160 % 11.89 C
602 10-05-2018 00:00:00 14.09271 C 87.0729 % 11.98 C
603 11-05-2018 00:00:00 14.47951 C 77.2778 % 10.55 C
604 12-05-2018 00:00:00 16.39236 C 75.1597 % 11.99 C
605 13-05-2018 00:00:00 14.62278 C 93.1317 % 13.53 C
606 14-05-2018 00:00:00 16.77361 C 89.0556 % 14.96 C
607 15-05-2018 00:00:00 15.91597 C 75.1875 % 11.53 C
608 16-05-2018 00:00:00 15.4941 C 83.2118 % 12.66 C
609 17-05-2018 00:00:00 13.78333 C 73.6285 % 9.16 C
610 18-05-2018 00:00:00 12.14792 C 74.4757 % 7.75 C
611 19-05-2018 00:00:00 13.63299 C 73.7118 % 9.03 C
612 20-05-2018 00:00:00 14.00278 C 84.2917 % 11.4 C
613 21-05-2018 00:00:00 17.43819 C 78.1806 % 13.6 C
614 22-05-2018 00:00:00 16.97917 C 82.6944 % 14.02 C
615 23-05-2018 00:00:00 17.30243 C 88.5104 % 15.39 C
616 24-05-2018 00:00:00 17.125 C 87.8507 % 15.1 C
617 25-05-2018 00:00:00 19.81944 C 80.2535 % 16.32 C
618 26-05-2018 00:00:00 20.84826 C 76.3958 % 16.54 C
619 27-05-2018 00:00:00 20.3191 C 81.4236 % 17.03 C
620 28-05-2018 00:00:00 21.47083 C 81.6424 % 18.2 C
621 29-05-2018 00:00:00 20.77292 C 85.9514 % 18.34 C
622 30-05-2018 00:00:00 21.53403 C 77.5799 % 17.45 C
623 31-05-2018 00:00:00 22.62083 C 74.5313 % 17.86 C
624 01-06-2018 00:00:00 19.10729 C 88.6667 % 17.19 C
625 02-06-2018 00:00:00 19.22917 C 81.5243 % 15.99 C
Sensor: Nr:Datum:Temp:Feuchte:Taupunkt:
Aussen-T/F 626 03-06-2018 00:00:00 19.42708 C 77.5903 % 15.41 C
627 04-06-2018 00:00:00 20.95938 C 74.2257 % 16.2 C
628 05-06-2018 00:00:00 20.70035 C 77.2569 % 16.58 C
629 06-06-2018 00:00:00 21.09375 C 74.2222 % 16.33 C
630 07-06-2018 00:00:00 21.15174 C 80.5868 % 17.68 C
631 08-06-2018 00:00:00 20.94375 C 84.2361 % 18.18 C
632 09-06-2018 00:00:00 21.9125 C 83.9896 % 19.08 C
633 10-06-2018 00:00:00 21.38239 C 86.1831 % 18.98 C
634 11-06-2018 00:00:00 19.19444 C 93.4549 % 18.11 C
635 12-06-2018 00:00:00 16.41979 C 90.3194 % 14.83 C
636 13-06-2018 00:00:00 14.8941 C 79.6285 % 11.41 C
637 14-06-2018 00:00:00 14.94132 C 80.6806 % 11.65 C
638 15-06-2018 00:00:00 17.84236 C 88.0243 % 15.83 C
639 16-06-2018 00:00:00 19.99306 C 78.6493 % 16.17 C
640 17-06-2018 00:00:00 17.94167 C 75.1979 % 13.49 C
641 18-06-2018 00:00:00 17.81667 C 77.9757 % 13.93 C
642 19-06-2018 00:00:00 18.89201 C 84.5799 % 16.24 C
643 20-06-2018 00:00:00 23.07639 C 72.0069 % 17.75 C
644 21-06-2018 00:00:00 17.92639 C 69.4514 % 12.26 C
645 22-06-2018 00:00:00 13.74097 C 68.4549 % 8.04 C
646 23-06-2018 00:00:00 13.76424 C 76.4514 % 9.7 C
647 24-06-2018 00:00:00 15.88264 C 72.8299 % 11.02 C
648 25-06-2018 00:00:00 17.09201 C 78.1806 % 13.26 C
649 26-06-2018 00:00:00 17.67396 C 74.6806 % 13.13 C
650 27-06-2018 00:00:00 19.15694 C 67.6979 % 13.05 C
Sensor: Nr:Datum:Temp:Feuchte:Taupunkt:
Aussen-T/F 651 28-06-2018 00:00:00 20.71076 C 61.1806 % 12.97 C
652 29-06-2018 00:00:00 24.11424 C 56.0451 % 14.8 C
653 30-06-2018 00:00:00 22.06215 C 56.9201 % 13.13 C
654 01-07-2018 00:00:00 20.86597 C 42.7396 % 7.74 C
655 02-07-2018 00:00:00 20.44792 C 45.9861 % 8.44 C
656 03-07-2018 00:00:00 20.73299 C 50.1319 % 9.98 C
657 04-07-2018 00:00:00 18.84167 C 80.7778 % 15.47 C
658 05-07-2018 00:00:00 19.41111 C 88.5799 % 17.48 C
659 06-07-2018 00:00:00 20.03056 C 75.7014 % 15.61 C
660 07-07-2018 00:00:00 20.66701 C 67.2326 % 14.38 C
661 08-07-2018 00:00:00 19.71181 C 58.3160 % 11.3 C
662 09-07-2018 00:00:00 19.32361 C 67.3299 % 13.12 C
663 10-07-2018 00:00:00 17.13715 C 73.0729 % 12.28 C
664 11-07-2018 00:00:00 16.10729 C 82.2396 % 13.08 C
665 12-07-2018 00:00:00 19.59688 C 80.3924 % 16.13 C
666 13-07-2018 00:00:00 19.71166 C 77.4240 % 15.65 C
667 14-07-2018 00:00:00 21.51493 C 67.9236 % 15.34 C
668 15-07-2018 00:00:00 21.63021 C 64.0521 % 14.54 C
669 16-07-2018 00:00:00 22.30868 C 61.5347 % 14.56 C
670 17-07-2018 00:00:00 21.01771 C 65.8507 % 14.39 C
671 18-07-2018 00:00:00 20.29479 C 65.8750 % 13.71 C
672 19-07-2018 00:00:00 20.92431 C 60.5069 % 13 C
673 20-07-2018 00:00:00 21.5559 C 61.6319 % 13.88 C
674 21-07-2018 00:00:00 20.6125 C 77.3958 % 16.52 C
675 22-07-2018 00:00:00 21.61458 C 70.0486 % 15.92 C
Sensor: Nr:Datum:Temp:Feuchte:Taupunkt:
Aussen-T/F 676 23-07-2018 00:00:00 22.37917 C 67.0868 % 15.97 C
677 24-07-2018 00:00:00 23.70278 C 63.7465 % 16.43 C
678 25-07-2018 00:00:00 25.50069 C 57.3160 % 16.44 C
679 26-07-2018 00:00:00 27.18785 C 54.2326 % 17.14 C
680 27-07-2018 00:00:00 26.11146 C 50.4861 % 15.03 C
681 28-07-2018 00:00:00 21.97743 C 76.3924 % 17.63 C
682 29-07-2018 00:00:00 23.50521 C 66.0451 % 16.8 C
683 30-07-2018 00:00:00 24.29931 C 64.4410 % 17.16 C
684 31-07-2018 00:00:00 25.46875 C 61.9722 % 17.65 C
685 01-08-2018 00:00:00 20.74271 C 87.4931 % 18.59 C
686 02-08-2018 00:00:00 23.73056 C 74.2257 % 18.87 C
687 03-08-2018 00:00:00 26.4684 C 61.0278 % 18.34 C
688 04-08-2018 00:00:00 26.38714 C 57.9821 % 17.45 C
689 05-08-2018 00:00:00 24.70486 C 59.6424 % 16.32 C
690 06-08-2018 00:00:00 24.16944 C 57.6563 % 15.29 C
691 07-08-2018 00:00:00 26.73646 C 55.5104 % 17.09 C
692 08-08-2018 00:00:00 25.29618 C 61.3021 % 17.31 C
693 09-08-2018 00:00:00 20.57778 C 82.7639 % 17.54 C
694 10-08-2018 00:00:00 18.35486 C 65.3924 % 11.76 C
695 11-08-2018 00:00:00 18.37083 C 59.8611 % 10.44 C
696 12-08-2018 00:00:00 18.15451 C 63.0729 % 11.02 C
697 13-08-2018 00:00:00 17.68854 C 81.8924 % 14.56 C
698 14-08-2018 00:00:00 18.53958 C 84.6563 % 15.91 C
699 15-08-2018 00:00:00 19.375 C 79.2465 % 15.69 C
700 16-08-2018 00:00:00 20.74444 C 71.2743 % 15.36 C
Sensor: Nr:Datum:Temp:Feuchte:Taupunkt:
Aussen-T/F 701 17-08-2018 00:00:00 19.75903 C 76.6632 % 15.54 C
702 18-08-2018 00:00:00 18.88785 C 68.7326 % 13.02 C
703 19-08-2018 00:00:00 20.30521 C 67.4132 % 14.07 C
704 20-08-2018 00:00:00 20.84444 C 73.5938 % 15.95 C
705 21-08-2018 00:00:00 21.96979 C 70.6528 % 16.39 C
706 22-08-2018 00:00:00 23.24757 C 65.7500 % 16.48 C
707 23-08-2018 00:00:00 22.88681 C 69.0660 % 16.91 C
708 24-08-2018 00:00:00 19.03368 C 65.5556 % 12.44 C
709 25-08-2018 00:00:00 14.525 C 69.8438 % 9.09 C
710 26-08-2018 00:00:00 13.80556 C 67.7882 % 7.96 C
711 27-08-2018 00:00:00 18.12604 C 70.1493 % 12.6 C
712 28-08-2018 00:00:00 18.12917 C 67.6632 % 12.06 C
713 29-08-2018 00:00:00 17.15556 C 80.1528 % 13.71 C
714 30-08-2018 00:00:00 17.22778 C 75.0799 % 12.78 C
715 31-08-2018 00:00:00 15.05521 C 72.2951 % 10.11 C
716 01-09-2018 00:00:00 14.30833 C 69.0799 % 8.72 C
717 02-09-2018 00:00:00 14.27188 C 76.5347 % 10.21 C
718 03-09-2018 00:00:00 18.05417 C 80.5556 % 14.66 C
719 04-09-2018 00:00:00 20.01736 C 79.3507 % 16.33 C
720 05-09-2018 00:00:00 20.91701 C 73.3229 % 15.97 C
721 06-09-2018 00:00:00 18.07014 C 87.7049 % 16 C
722 07-09-2018 00:00:00 15.72639 C 86.9479 % 13.56 C
723 08-09-2018 00:00:00 13.53889 C 76.5139 % 9.49 C
724 09-09-2018 00:00:00 16.94236 C 70.6667 % 11.58 C
725 10-09-2018 00:00:00 17.5 C 71.7396 % 12.34 C
Sensor: Nr:Datum:Temp:Feuchte:Taupunkt:
Aussen-T/F 726 11-09-2018 00:00:00 18.85868 C 70.4028 % 13.36 C
727 12-09-2018 00:00:00 19.08646 C 71.2882 % 13.77 C
728 13-09-2018 00:00:00 16.3625 C 85.6632 % 13.96 C
729 14-09-2018 00:00:00 16.95174 C 71.3056 % 11.73 C
730 15-09-2018 00:00:00 15.14028 C 70.3368 % 9.78 C
731 16-09-2018 00:00:00 14.7184 C 71.4063 % 9.6 C
732 17-09-2018 00:00:00 16.79306 C 68.7813 % 11.03 C
733 18-09-2018 00:00:00 19.05208 C 70.2292 % 13.51 C
734 19-09-2018 00:00:00 20.67951 C 71.7535 % 15.4 C
735 20-09-2018 00:00:00 19.17153 C 72.3785 % 14.09 C
736 21-09-2018 00:00:00 15.93472 C 78.7778 % 12.26 C
737 22-09-2018 00:00:00 12.7566 C 77.2465 % 8.88 C
738 23-09-2018 00:00:00 12.33056 C 94.4167 % 11.46 C
739 24-09-2018 00:00:00 9.92396 C 85.7674 % 7.66 C
740 25-09-2018 00:00:00 8.38785 C 85.7431 % 6.14 C
741 26-09-2018 00:00:00 8.82917 C 82.7153 % 6.06 C
742 27-09-2018 00:00:00 11.32708 C 83.9236 % 8.71 C
743 28-09-2018 00:00:00 10.18526 C 91.0982 % 8.8 C
744 29-09-2018 00:00:00 8.2941 C 81.8056 % 5.37 C
745 30-09-2018 00:00:00 7.9427 C 82.6726 % 5.18 C
746 01-10-2018 00:00:00 9.71701 C 81.2778 % 6.67 C
747 02-10-2018 00:00:00 9.17604 C 87.5625 % 7.22 C
748 03-10-2018 00:00:00 12.2809 C 82.0521 % 9.31 C
749 04-10-2018 00:00:00 9.78056 C 87.1875 % 7.75 C
750 05-10-2018 00:00:00 10.63021 C 88.2743 % 8.77 C
Sensor: Nr:Datum:Temp:Feuchte:Taupunkt:
Aussen-T/F 751 06-10-2018 00:00:00 12.7691 C 89.0000 % 11 C
752 07-10-2018 00:00:00 13.00243 C 89.0833 % 11.25 C
753 08-10-2018 00:00:00 10.50347 C 88.5521 % 8.69 C
754 09-10-2018 00:00:00 11.75035 C 91.4340 % 10.4 C
755 10-10-2018 00:00:00 13.21285 C 90.3646 % 11.67 C
756 11-10-2018 00:00:00 14.21701 C 88.2674 % 12.31 C
757 12-10-2018 00:00:00 15.87882 C 86.2604 % 13.59 C
758 13-10-2018 00:00:00 15.57986 C 84.2257 % 12.93 C
759 14-10-2018 00:00:00 14.79965 C 83.0174 % 11.95 C
760 15-10-2018 00:00:00 13.825 C 84.5903 % 11.28 C
761 16-10-2018 00:00:00 12.87292 C 86.4653 % 10.67 C
762 17-10-2018 00:00:00 12.82847 C 88.3368 % 10.95 C
763 18-10-2018 00:00:00 14.04618 C 88.4722 % 12.17 C
764 19-10-2018 00:00:00 12.08785 C 87.8889 % 10.14 C
765 20-10-2018 00:00:00 11.03542 C 86.2431 % 8.83 C
766 21-10-2018 00:00:00 7.3066 C 91.4479 % 6.01 C
767 22-10-2018 00:00:00 7.67014 C 90.5417 % 6.22 C
768 23-10-2018 00:00:00 9.04306 C 84.6944 % 6.61 C
769 24-10-2018 00:00:00 14.07604 C 86.3472 % 11.83 C
770 25-10-2018 00:00:00 12.94722 C 83.3368 % 10.19 C
771 26-10-2018 00:00:00 10.21354 C 80.8299 % 7.07 C
772 27-10-2018 00:00:00 6.27118 C 90.9340 % 4.9 C
773 28-10-2018 00:00:00 5.67778 C 83.1424 % 3.05 C
774 29-10-2018 00:00:00 6.43264 C 84.8160 % 4.07 C
775 30-10-2018 00:00:00 6.2809 C 91.5868 % 5.02 C
Sensor: Nr:Datum:Temp:Feuchte:Taupunkt:
Aussen-T/F 776 31-10-2018 00:00:00 7.45382 C 86.8194 % 5.41 C
777 01-11-2018 00:00:00 6.13194 C 95.0799 % 5.4 C
778 02-11-2018 00:00:00 8.86597 C 94.0486 % 7.96 C
779 03-11-2018 00:00:00 3.50521 C 96.4549 % 3 C
780 04-11-2018 00:00:00 6.86007 C 95.2361 % 6.15 C
781 05-11-2018 00:00:00 10.39097 C 92.1042 % 9.17 C
782 06-11-2018 00:00:00 8.41806 C 95.6667 % 7.77 C
783 07-11-2018 00:00:00 9.32118 C 92.4167 % 8.16 C
784 08-11-2018 00:00:00 10.425 C 89.0660 % 8.7 C
785 09-11-2018 00:00:00 9.62604 C 92.9861 % 8.55 C
786 10-11-2018 00:00:00 11.90347 C 90.1250 % 10.34 C
787 11-11-2018 00:00:00 12.04618 C 90.5972 % 10.56 C
788 12-11-2018 00:00:00 13.70069 C 90.0278 % 12.1 C
789 13-11-2018 00:00:00 10.46076 C 92.4965 % 9.3 C
790 14-11-2018 00:00:00 6.18264 C 96.5938 % 5.68 C
791 15-11-2018 00:00:00 6.9816 C 91.5660 % 5.71 C
792 16-11-2018 00:00:00 5.92778 C 89.7882 % 4.38 C
793 17-11-2018 00:00:00 2.75417 C 88.6667 % 1.07 C
794 18-11-2018 00:00:00 1.8566 C 79.8333 % -1.25 C
795 19-11-2018 00:00:00 3.57014 C 81.2153 % 0.66 C
796 20-11-2018 00:00:00 3.50972 C 80.1910 % 0.43 C
797 21-11-2018 00:00:00 2.50312 C 88.6979 % 0.83 C
798 22-11-2018 00:00:00 2.91458 C 88.0903 % 1.14 C
799 23-11-2018 00:00:00 0.10868 C 95.3785 % -0.54 C
800 24-11-2018 00:00:00 4.74792 C 96.2674 % 4.21 C
Sensor: Nr:Datum:Temp:Feuchte:Taupunkt:
Aussen-T/F 801 25-11-2018 00:00:00 5.98785 C 95.8785 % 5.38 C
802 26-11-2018 00:00:00 6.65625 C 87.8958 % 4.8 C
803 27-11-2018 00:00:00 4.12465 C 83.8368 % 1.64 C
804 28-11-2018 00:00:00 3.7 C 91.6667 % 2.47 C
805 29-11-2018 00:00:00 5.67875 C 92.7735 % 4.6 C
806 30-11-2018 00:00:00 7.44514 C 94.6875 % 6.65 C
807 01-12-2018 00:00:00 7.48993 C 91.5833 % 6.21 C
808 02-12-2018 00:00:00 11.28056 C 93.0868 % 10.21 C
809 03-12-2018 00:00:00 11.76701 C 95.7708 % 11.11 C
810 04-12-2018 00:00:00 6.48715 C 90.9653 % 5.12 C
811 05-12-2018 00:00:00 3.60729 C 96.1806 % 3.06 C
812 06-12-2018 00:00:00 9.76042 C 93.8924 % 8.83 C
813 07-12-2018 00:00:00 11.22882 C 86.6667 % 9.09 C
814 08-12-2018 00:00:00 7.97361 C 88.5035 % 6.19 C
815 09-12-2018 00:00:00 8.02544 C 87.9756 % 6.16 C
816 10-12-2018 00:00:00 4.96771 C 91.2639 % 3.67 C
817 11-12-2018 00:00:00 3.84375 C 93.7118 % 2.93 C
818 12-12-2018 00:00:00 2.70801 C 95.4948 % 2.06 C
819 13-12-2018 00:00:00 1.36181 C 87.4618 % -0.49 C
820 14-12-2018 00:00:00 1.15521 C 77.4757 % -2.33 C
821 15-12-2018 00:00:00 0.62683 C 78.6202 % -2.65 C
822 16-12-2018 00:00:00 0.77743 C 90.5382 % -0.59 C
823 17-12-2018 00:00:00 4.19722 C 94.8194 % 3.44 C
824 18-12-2018 00:00:00 5.08229 C 90.2917 % 3.63 C
825 19-12-2018 00:00:00 6.54495 C 88.8537 % 4.84 C
Sensor: Nr:Datum:Temp:Feuchte:Taupunkt:
Aussen-T/F 826 20-12-2018 00:00:00 7.58741 C 89.6818 % 6 C
827 21-12-2018 00:00:00 10.78507 C 86.4514 % 8.62 C
828 22-12-2018 00:00:00 9.94266 C 85.9091 % 7.7 C
829 23-12-2018 00:00:00 8.60868 C 93.6563 % 7.65 C
830 24-12-2018 00:00:00 4.88924 C 90.8750 % 3.53 C
831 25-12-2018 00:00:00 1.85208 C 93.1667 % 0.87 C
832 26-12-2018 00:00:00 -0.91736 C 95.5035 % -1.54 C
833 27-12-2018 00:00:00 0.08125 C 95.8090 % -0.51 C
834 28-12-2018 00:00:00 0.225 C 94.9375 % -0.49 C
835 29-12-2018 00:00:00 2.70972 C 93.3576 % 1.75 C
836 30-12-2018 00:00:00 7.50313 C 87.4271 % 5.55 C
837 31-12-2018 00:00:00 7.59271 C 96.4201 % 7.06 C
838 01-01-2019 00:00:00 7.09271 C 92.0833 % 5.9 C
839 02-01-2019 00:00:00 3.70104 C 82.7847 % 1.05 C
840 03-01-2019 00:00:00 2.03715 C 93.0000 % 1.03 C
841 04-01-2019 00:00:00 3.13785 C 91.9826 % 1.96 C
842 05-01-2019 00:00:00 5.92632 C 93.3825 % 4.94 C
843 06-01-2019 00:00:00 5.76944 C 91.7674 % 4.54 C
844 07-01-2019 00:00:00 5.50417 C 89.8819 % 3.98 C
845 08-01-2019 00:00:00 6.62222 C 85.9688 % 4.45 C
846 09-01-2019 00:00:00 3.90486 C 83.8368 % 1.43 C
847 10-01-2019 00:00:00 2.05694 C 83.7708 % -0.39 C
848 11-01-2019 00:00:00 2.82847 C 94.7882 % 2.08 C
849 12-01-2019 00:00:00 5.96702 C 92.9734 % 4.92 C
850 13-01-2019 00:00:00 7.73715 C 94.1493 % 6.86 C
Sensor: Nr:Datum:Temp:Feuchte:Taupunkt:
Aussen-T/F 851 14-01-2019 00:00:00 5.07083 C 89.5625 % 3.5 C
852 15-01-2019 00:00:00 4.78854 C 89.1007 % 3.15 C
853 16-01-2019 00:00:00 5.27187 C 85.4861 % 3.04 C
854 17-01-2019 00:00:00 5.0066 C 87.3924 % 3.09 C
855 18-01-2019 00:00:00 0.77569 C 91.8611 % -0.39 C
856 19-01-2019 00:00:00 -2.72396 C 93.3299 % -3.65 C
857 20-01-2019 00:00:00 -4.97187 C 92.8854 % -5.94 C
858 21-01-2019 00:00:00 -6.20972 C 93.8472 % -7.04 C
859 22-01-2019 00:00:00 -4.96667 C 92.0938 % -6.05 C
860 23-01-2019 00:00:00 -1.57743 C 89.4028 % -3.09 C
861 24-01-2019 00:00:00 -1.91736 C 83.8854 % -4.27 C
862 25-01-2019 00:00:00 0.28403 C 88.1354 % -1.44 C
863 26-01-2019 00:00:00 4.48229 C 92.3229 % 3.35 C
864 27-01-2019 00:00:00 5.94583 C 90.0868 % 4.45 C
865 28-01-2019 00:00:00 3.17118 C 90.8854 % 1.83 C
866 29-01-2019 00:00:00 1.73021 C 89.6875 % 0.22 C
867 30-01-2019 00:00:00 0.45972 C 93.3264 % -0.49 C
868 31-01-2019 00:00:00 -0.09826 C 94.7188 % -0.84 C
869 01-02-2019 00:00:00 1.74826 C 95.6389 % 1.13 C
870 02-02-2019 00:00:00 2.46701 C 96.8611 % 2.02 C
871 03-02-2019 00:00:00 2.7 C 88.6910 % 1.02 C
872 04-02-2019 00:00:00 1.83229 C 87.0625 % -0.09 C
873 05-02-2019 00:00:00 4.34375 C 81.1771 % 1.41 C
874 06-02-2019 00:00:00 1.17639 C 89.9688 % -0.28 C
875 07-02-2019 00:00:00 5.09549 C 88.0833 % 3.29 C
Sensor: Nr:Datum:Temp:Feuchte:Taupunkt:
Aussen-T/F 876 08-02-2019 00:00:00 7.42604 C 83.5417 % 4.83 C
877 09-02-2019 00:00:00 8.6309 C 79.8056 % 5.35 C
878 10-02-2019 00:00:00 7.96076 C 88.4965 % 6.18 C
879 11-02-2019 00:00:00 4.86736 C 86.4931 % 2.81 C
880 12-02-2019 00:00:00 3.71597 C 86.6563 % 1.7 C
881 13-02-2019 00:00:00 1.77951 C 91.5833 % 0.56 C
882 14-02-2019 00:00:00 0.77431 C 92.7674 % -0.26 C
883 15-02-2019 00:00:00 2.33854 C 89.2917 % 0.76 C
884 16-02-2019 00:00:00 3.375 C 88.6319 % 1.68 C
885 17-02-2019 00:00:00 3.45451 C 89.9236 % 1.96 C
886 18-02-2019 00:00:00 3.69653 C 86.8368 % 1.71 C
887 19-02-2019 00:00:00 5.85868 C 87.7118 % 3.98 C
888 20-02-2019 00:00:00 4.70694 C 89.0660 % 3.06 C
889 21-02-2019 00:00:00 6.3625 C 90.0174 % 4.85 C
890 22-02-2019 00:00:00 9.91111 C 88.0347 % 8.03 C
891 23-02-2019 00:00:00 5.41076 C 78.7188 % 2.02 C
892 24-02-2019 00:00:00 3.39271 C 73.0729 % -0.96 C
893 25-02-2019 00:00:00 5.05139 C 74.1181 % 0.83 C
894 26-02-2019 00:00:00 6.18646 C 80.1042 % 3.02 C
895 27-02-2019 00:00:00 6.63576 C 79.5313 % 3.36 C
896 28-02-2019 00:00:00 8.81701 C 78.9201 % 5.37 C
897 01-03-2019 00:00:00 8.12708 C 91.9583 % 6.9 C
898 02-03-2019 00:00:00 8.64236 C 85.0868 % 6.28 C
899 03-03-2019 00:00:00 11.11319 C 80.0069 % 7.8 C
900 04-03-2019 00:00:00 9.71875 C 78.3854 % 6.15 C
Sensor: Nr:Datum:Temp:Feuchte:Taupunkt:
Aussen-T/F 901 05-03-2019 00:00:00 6.87396 C 81.6181 % 3.95 C
902 06-03-2019 00:00:00 10.01944 C 78.9792 % 6.55 C
903 07-03-2019 00:00:00 10.20729 C 79.2014 % 6.77 C
904 08-03-2019 00:00:00 8.18854 C 79.1181 % 4.79 C
905 09-03-2019 00:00:00 10.36875 C 76.7188 % 6.46 C
906 10-03-2019 00:00:00 9.55694 C 76.8507 % 5.7 C
907 11-03-2019 00:00:00 4.7934 C 79.8264 % 1.61 C
908 12-03-2019 00:00:00 6.61563 C 70.1319 % 1.57 C
909 13-03-2019 00:00:00 6.20382 C 82.8472 % 3.51 C
910 14-03-2019 00:00:00 7.03611 C 87.2674 % 5.07 C
911 15-03-2019 00:00:00 10.13993 C 87.2014 % 8.11 C
912 16-03-2019 00:00:00 10.23472 C 85.5417 % 7.92 C
913 17-03-2019 00:00:00 8.66319 C 77.8160 % 5.02 C
914 18-03-2019 00:00:00 4.96458 C 85.1458 % 2.68 C
915 19-03-2019 00:00:00 3.83715 C 80.5000 % 0.8 C
916 20-03-2019 00:00:00 5.47951 C 77.2882 % 1.83 C
917 21-03-2019 00:00:00 7.53194 C 73.6076 % 3.13 C
918 22-03-2019 00:00:00 9.15799 C 72.1563 % 4.41 C
919 23-03-2019 00:00:00 6.18576 C 87.5035 % 4.27 C
920 24-03-2019 00:00:00 6.4583 C 83.7380 % 3.91 C
921 25-03-2019 00:00:00 5.13299 C 86.0243 % 2.99 C
922 26-03-2019 00:00:00 6.64792 C 81.5799 % 3.73 C
923 27-03-2019 00:00:00 6.81528 C 80.7535 % 3.75 C
924 28-03-2019 00:00:00 7.32535 C 81.7951 % 4.43 C
925 29-03-2019 00:00:00 8.96493 C 79.2708 % 5.57 C
Sensor: Nr:Datum:Temp:Feuchte:Taupunkt:
Aussen-T/F 926 30-03-2019 00:00:00 10.50104 C 72.7500 % 5.82 C
927 31-03-2019 00:00:00 10.31594 C 80.1486 % 7.05 C
928 01-04-2019 00:00:00 9.41771 C 75.2326 % 5.26 C
929 02-04-2019 00:00:00 10.74375 C 76.1979 % 6.73 C
930 03-04-2019 00:00:00 8.37083 C 86.8889 % 6.32 C
931 04-04-2019 00:00:00 6.05799 C 93.2604 % 5.05 C
932 05-04-2019 00:00:00 6.32535 C 92.0556 % 5.13 C
933 06-04-2019 00:00:00 10.20313 C 83.4549 % 7.53 C
934 07-04-2019 00:00:00 12.02083 C 75.0764 % 7.75 C
935 08-04-2019 00:00:00 12.69757 C 85.2188 % 10.28 C
936 09-04-2019 00:00:00 12.23472 C 88.4201 % 10.38 C
937 10-04-2019 00:00:00 10.80035 C 65.8750 % 4.69 C
938 11-04-2019 00:00:00 6.94306 C 60.9931 % -0.05 C
939 12-04-2019 00:00:00 5.01528 C 58.9653 % -2.32 C
940 13-04-2019 00:00:00 3.85556 C 75.6458 % -0.04 C
941 14-04-2019 00:00:00 5.53576 C 76.5590 % 1.75 C
942 15-04-2019 00:00:00 10.42187 C 69.5868 % 5.11 C
943 16-04-2019 00:00:00 11.20417 C 67.0417 % 5.32 C
944 17-04-2019 00:00:00 12.74861 C 83.8576 % 10.09 C
945 18-04-2019 00:00:00 14.16528 C 65.0556 % 7.7 C
946 19-04-2019 00:00:00 15.41285 C 56.3681 % 6.78 C
947 20-04-2019 00:00:00 14.87153 C 61.3125 % 7.5 C
948 21-04-2019 00:00:00 15.62813 C 58.4688 % 7.52 C
949 22-04-2019 00:00:00 14.99375 C 59.5382 % 7.19 C
950 23-04-2019 00:00:00 15.15903 C 61.0799 % 7.72 C
Sensor: Nr:Datum:Temp:Feuchte:Taupunkt:
Aussen-T/F 951 24-04-2019 00:00:00 15.11424 C 73.1042 % 10.34 C
952 25-04-2019 00:00:00 13.28785 C 78.5139 % 9.64 C
953 26-04-2019 00:00:00 11.86806 C 83.8681 % 9.23 C
954 27-04-2019 00:00:00 9.34688 C 89.7569 % 7.75 C
955 28-04-2019 00:00:00 8.50208 C 83.0000 % 5.79 C
956 29-04-2019 00:00:00 8.56736 C 84.4653 % 6.1 C
957 30-04-2019 00:00:00 14.05278 C 68.6979 % 8.39 C
958 01-05-2019 00:00:00 12.7816 C 76.3333 % 8.73 C
959 02-05-2019 00:00:00 11.4566 C 80.2535 % 8.18 C
960 03-05-2019 00:00:00 11.00208 C 73.3056 % 6.42 C
961 04-05-2019 00:00:00 6.36493 C 84.2014 % 3.9 C
962 05-05-2019 00:00:00 6.67882 C 81.4167 % 3.73 C
963 06-05-2019 00:00:00 7.62465 C 77.0660 % 3.87 C
964 07-05-2019 00:00:00 9.6066 C 73.7396 % 5.16 C
965 08-05-2019 00:00:00 9.41667 C 88.5972 % 7.63 C
966 09-05-2019 00:00:00 11.20938 C 88.9410 % 9.46 C
967 10-05-2019 00:00:00 12.49306 C 77.5833 % 8.69 C
968 11-05-2019 00:00:00 10.05833 C 93.1111 % 9 C
969 12-05-2019 00:00:00 9.40625 C 72.7778 % 4.78 C
970 13-05-2019 00:00:00 9.96736 C 61.6701 % 2.96 C
971 14-05-2019 00:00:00 9.58299 C 64.4479 % 3.22 C
972 15-05-2019 00:00:00 9.79896 C 60.9583 % 2.64 C
973 16-05-2019 00:00:00 10.83854 C 70.4271 % 5.68 C
974 17-05-2019 00:00:00 11.60069 C 89.4896 % 9.93 C
975 18-05-2019 00:00:00 14.44306 C 85.5035 % 12.04 C
Sensor: Nr:Datum:Temp:Feuchte:Taupunkt:
Aussen-T/F 976 19-05-2019 00:00:00 15.85694 C 83.5868 % 13.08 C
977 20-05-2019 00:00:00 13.90347 C 89.8125 % 12.26 C
978 21-05-2019 00:00:00 12.49722 C 93.0868 % 11.41 C
979 22-05-2019 00:00:00 13.38785 C 80.8681 % 10.17 C
980 23-05-2019 00:00:00 15.11875 C 74.1389 % 10.55 C
981 24-05-2019 00:00:00 16.93437 C 70.9271 % 11.63 C
982 25-05-2019 00:00:00 15.60035 C 67.4167 % 9.59 C
983 26-05-2019 00:00:00 15.92014 C 74.4549 % 11.39 C
984 27-05-2019 00:00:00 14.98924 C 90.8889 % 13.51 C
985 28-05-2019 00:00:00 13.95729 C 85.1146 % 11.5 C
986 29-05-2019 00:00:00 14.97951 C 68.2535 % 9.18 C
987 30-05-2019 00:00:00 15.62396 C 78.5069 % 11.9 C
988 31-05-2019 00:00:00 19.22674 C 74.1806 % 14.52 C
989 01-06-2019 00:00:00 19.98924 C 74.3090 % 15.28 C
990 02-06-2019 00:00:00 22.09028 C 70.5521 % 16.49 C
991 03-06-2019 00:00:00 20.85625 C 73.4583 % 15.94 C
992 04-06-2019 00:00:00 21.5059 C 73.6146 % 16.59 C
993 05-06-2019 00:00:00 23.45243 C 67.8507 % 17.17 C
994 06-06-2019 00:00:00 15.94271 C 78.5556 % 12.22 C
995 07-06-2019 00:00:00 15.6809 C 76.3646 % 11.54 C
996 08-06-2019 00:00:00 16.15243 C 62.7743 % 9.06 C
997 09-06-2019 00:00:00 16.23438 C 72.8542 % 11.36 C
998 10-06-2019 00:00:00 19.2684 C 73.8403 % 14.49 C
999 11-06-2019 00:00:00 17.19063 C 83.4826 % 14.37 C
1000 12-06-2019 00:00:00 16.48854 C 82.3194 % 13.47 C
Sensor: Nr:Datum:Temp:Feuchte:Taupunkt:
Aussen-T/F 1001 13-06-2019 00:00:00 15.92743 C 75.5694 % 11.62 C
1002 14-06-2019 00:00:00 17.88507 C 82.6875 % 14.9 C
1003 15-06-2019 00:00:00 19.62083 C 79.3646 % 15.95 C
1004 16-06-2019 00:00:00 19.34479 C 71.4271 % 14.05 C
1005 17-06-2019 00:00:00 18.93646 C 73.1111 % 14.02 C
1006 18-06-2019 00:00:00 21.4625 C 72.7188 % 16.36 C
1007 19-06-2019 00:00:00 22.17049 C 73.3125 % 17.17 C
1008 20-06-2019 00:00:00 19.48229 C 80.3681 % 16.01 C
1009 21-06-2019 00:00:00 18.55694 C 68.4306 % 12.64 C
1010 22-06-2019 00:00:00 19.16771 C 69.5729 % 13.47 C
1011 23-06-2019 00:00:00 21.78854 C 71.5521 % 16.42 C
1012 24-06-2019 00:00:00 24.3809 C 68.9965 % 18.32 C
1013 25-06-2019 00:00:00 26.30625 C 65.6458 % 19.36 C
1014 26-06-2019 00:00:00 26.97257 C 66.5486 % 20.21 C
1015 27-06-2019 00:00:00 24.42326 C 58.6910 % 15.81 C
1016 28-06-2019 00:00:00 21.63368 C 60.1458 % 13.57 C
1017 29-06-2019 00:00:00 24.00937 C 53.3750 % 13.95 C
1018 30-06-2019 00:00:00 25.32014 C 62.4688 % 17.63 C
1019 01-07-2019 00:00:00 22.68715 C 60.6875 % 14.7 C
1020 02-07-2019 00:00:00 19.04306 C 61.0868 % 11.38 C
1021 03-07-2019 00:00:00 17.43472 C 61.1146 % 9.87 C
1022 04-07-2019 00:00:00 18.23021 C 56.4375 % 9.43 C
1023 05-07-2019 00:00:00 20.73889 C 56.5486 % 11.8 C
1024 06-07-2019 00:00:00 21.18681 C 61.5174 % 13.5 C
1025 07-07-2019 00:00:00 17.74306 C 68.3819 % 11.85 C
Sensor: Nr:Datum:Temp:Feuchte:Taupunkt:
Aussen-T/F 1026 08-07-2019 00:00:00 14.44931 C 70.9271 % 9.25 C
1027 09-07-2019 00:00:00 15.40868 C 66.0868 % 9.11 C
1028 10-07-2019 00:00:00 16.98854 C 57.9271 % 8.66 C
1029 11-07-2019 00:00:00 17.76076 C 79.7500 % 14.22 C
1030 12-07-2019 00:00:00 17.3375 C 92.0313 % 16.03 C
1031 13-07-2019 00:00:00 17.99896 C 83.4549 % 15.15 C
1032 14-07-2019 00:00:00 16.92569 C 75.5729 % 12.58 C
1033 15-07-2019 00:00:00 16.34757 C 73.9826 % 11.7 C
1034 16-07-2019 00:00:00 16.0375 C 75.3507 % 11.68 C
1035 17-07-2019 00:00:00 17.21979 C 76.2847 % 13.01 C
1036 18-07-2019 00:00:00 19.06944 C 74.1424 % 14.36 C
1037 19-07-2019 00:00:00 20.2441 C 77.7257 % 16.23 C
1038 20-07-2019 00:00:00 21.61736 C 75.2292 % 17.04 C
1039 21-07-2019 00:00:00 21.96076 C 68.7569 % 15.96 C
1040 22-07-2019 00:00:00 22.29861 C 66.0139 % 15.64 C
1041 23-07-2019 00:00:00 25.05139 C 61.5764 % 17.15 C
1042 24-07-2019 00:00:00 27.05069 C 57.6528 % 17.98 C
1043 25-07-2019 00:00:00 28.69028 C 53.5729 % 18.33 C
1044 26-07-2019 00:00:00 27.21528 C 56.0694 % 17.69 C
1045 27-07-2019 00:00:00 23.20069 C 79.9340 % 19.54 C
1046 28-07-2019 00:00:00 19.86597 C 90.5938 % 18.28 C
1047 29-07-2019 00:00:00 21.16354 C 73.6146 % 16.26 C
1048 30-07-2019 00:00:00 21.86528 C 66.5625 % 15.36 C
1049 31-07-2019 00:00:00 21.06111 C 60.7778 % 13.2 C
1050 01-08-2019 00:00:00 19.46424 C 65.5833 % 12.85 C
Sensor: Nr:Datum:Temp:Feuchte:Taupunkt:
Aussen-T/F 1051 02-08-2019 00:00:00 20.52743 C 69.8611 % 14.84 C
1052 03-08-2019 00:00:00 20.39271 C 72.5833 % 15.3 C
1053 04-08-2019 00:00:00 20.53854 C 68.3681 % 14.51 C
1054 05-08-2019 00:00:00 22.56562 C 67.3333 % 16.21 C
1055 06-08-2019 00:00:00 19.97604 C 80.0104 % 16.42 C
1056 07-08-2019 00:00:00 19.07535 C 87.4479 % 16.94 C
1057 08-08-2019 00:00:00 20.39132 C 75.4826 % 15.91 C
1058 09-08-2019 00:00:00 19.85833 C 86.8125 % 17.6 C
1059 10-08-2019 00:00:00 20.67986 C 77.2986 % 16.56 C
1060 11-08-2019 00:00:00 16.99444 C 80.9028 % 13.69 C
1061 12-08-2019 00:00:00 16.4441 C 84.5729 % 13.84 C
1062 13-08-2019 00:00:00 15.94306 C 78.5799 % 12.23 C
1063 14-08-2019 00:00:00 16.52882 C 76.0139 % 12.29 C
1064 15-08-2019 00:00:00 17.34306 C 88.4896 % 15.42 C
1065 16-08-2019 00:00:00 17.72257 C 80.7049 % 14.37 C
1066 17-08-2019 00:00:00 18.07049 C 86.6146 % 15.8 C
1067 18-08-2019 00:00:00 19.8941 C 90.2847 % 18.25 C
1068 19-08-2019 00:00:00 18.3684 C 77.8715 % 14.44 C
1069 20-08-2019 00:00:00 15.78611 C 80.0347 % 12.35 C
1070 21-08-2019 00:00:00 16.52222 C 75.4306 % 12.17 C
1071 22-08-2019 00:00:00 17.27465 C 72.3576 % 12.26 C
1072 23-08-2019 00:00:00 18.44792 C 70.9271 % 13.08 C
1073 24-08-2019 00:00:00 19.52326 C 70.7153 % 14.06 C
1074 25-08-2019 00:00:00 21.57431 C 75.4097 % 17.04 C
1075 26-08-2019 00:00:00 22.3684 C 80.4097 % 18.83 C
Sensor: Nr:Datum:Temp:Feuchte:Taupunkt:
Aussen-T/F 1076 27-08-2019 00:00:00 22.81979 C 79.4132 % 19.07 C
1077 28-08-2019 00:00:00 23.38924 C 73.0868 % 18.29 C
1078 29-08-2019 00:00:00 22.04201 C 76.9236 % 17.81 C
1079 30-08-2019 00:00:00 21.0059 C 72.4444 % 15.86 C
1080 31-08-2019 00:00:00 22.0566 C 72.1215 % 16.8 C
1081 01-09-2019 00:00:00 18.73056 C 76.1563 % 14.45 C
1082 02-09-2019 00:00:00 15.43958 C 67.8264 % 9.53 C
1083 03-09-2019 00:00:00 15.68611 C 70.4340 % 10.33 C
1084 04-09-2019 00:00:00 16.83646 C 77.0521 % 12.79 C
1085 05-09-2019 00:00:00 15.41285 C 74.8958 % 10.99 C
1086 06-09-2019 00:00:00 13.54271 C 71.3021 % 8.45 C
1087 07-09-2019 00:00:00 12.95382 C 86.8160 % 10.81 C
1088 08-09-2019 00:00:00 12.67778 C 94.2569 % 11.78 C
1089 09-09-2019 00:00:00 12.50868 C 90.4583 % 10.99 C
1090 10-09-2019 00:00:00 11.86563 C 85.2361 % 9.47 C
1091 11-09-2019 00:00:00 13.34931 C 80.9444 % 10.15 C
1092 12-09-2019 00:00:00 19.07292 C 78.3889 % 15.23 C
1093 13-09-2019 00:00:00 17.76319 C 88.1424 % 15.78 C
1094 14-09-2019 00:00:00 15.58229 C 81.1806 % 12.37 C
1095 15-09-2019 00:00:00 15.40243 C 78.5451 % 11.69 C

Maximal/Minimal-Werte vom 16.09.2016 - 15.09.2019

Sensor Min Max Avg
Temp
(Aussen-T/F)
-10.6 °C
22-01-2017  07:55:00
40.4 °C
25-07-2019  16:20:00
11.2 °C
Feuchte
(Aussen-T/F)
18 %
03-07-2018  17:25:00
99 %
19-10-2017  14:05:00
82.37 %
Taupunkt
(Aussen-T/F)
-11.99 C
28-02-2018  00:00:00
20.21 C
26-06-2019  00:00:00
8.13 C

Die Daten stammen von einer Davis Vantage Pro 2 Wetter-Station und werden unter Linux mit der Software wview2wettercgi und aufbereitet. Alle Angaben erfolgen ohne Gewähr für ihre Vollständigkeit oder Richtigkeit.
Kontakt: Rainer Krienke krienke@uni-koblenz.de . Meine Webseiten an der Uni Koblenz oder privat.
Version: $Revision: 0.78 $